Terminal Aerodrome Forecast
Issued by NWS Pocatello, ID

Home | Current Version | Previous Version | Text Only | Print | Product List | Glossary On
Versions: 1 2 3 4 5 6 7 8 9 10 11 12 13 14 15 16 17 18 19 20 21 22 23 24
000
FTUS45 KPIH 090733 AAA
TAFBYI
TAF AMD
KBYI 090733Z 0908/1006 02008KT 4SM -SN BR VCSH FEW015 SCT025 OVC035
      TEMPO 0908/0912 2SM -SN SCT015 BKN025 OVC035
     FM091200 VRB04KT 2SM BR VCSH SCT008 BKN015 OVC025
     FM091800 18008KT 2SM -SN BR SCT008 OVC015
     FM100300 19010KT 4SM -RA BR BKN008 OVC015=

USA.gov is the U.S. government's official web portal to all federal, state and local government web resources and services.